Time;durP1;ratioP1;P1;durP2;ratioP2;P2;SDS_P1;SDS_P2;PMS_P1;PMS_P2;Temp;Humidity;BMP_temperature;BMP_pressure;BME280_temperature;BME280_humidity;BME280_pressure;Samples;Min_cycle;Max_cycle;Signal;HPM_P1;HPM_P2
2022/04/23 00:03:28;;;;;;;3.10;2.80;;;11.40;47.00;;;8.65;53.40;100755.50;8229941;28;20133;-78
2022/04/23 00:07:30;;;;;;;3.17;2.92;;;11.70;47.10;;;8.46;53.48;100733.84;8204316;28;20138;-77
2022/04/23 00:11:32;;;;;;;5.43;3.53;;;11.30;46.90;;;8.77;53.54;100775.75;8215827;28;20045;-78
2022/04/23 00:15:37;;;;;;;3.65;2.83;;;11.20;47.00;;;8.89;53.58;100799.53;8222296;28;20499;-78
2022/04/23 00:19:38;;;;;;;3.13;2.85;;;11.20;47.40;;;8.74;52.89;100773.28;8231416;28;20161;-78
2022/04/23 00:23:40;;;;;;;3.88;3.25;;;11.10;47.10;;;8.72;53.24;100775.13;8217580;28;20551;-78
2022/04/23 00:27:42;;;;;;;4.00;3.60;;;11.10;47.10;;;8.63;53.26;100752.97;8225586;28;20579;-77
2022/04/23 00:31:43;;;;;;;3.72;3.35;;;11.10;47.10;;;8.89;53.27;100796.94;8248545;28;20467;-78
2022/04/23 00:35:46;;;;;;;4.32;3.92;;;11.20;47.10;;;8.75;53.38;100775.00;8250848;28;20102;-77
2022/04/23 00:39:48;;;;;;;4.10;3.67;;;11.20;47.10;;;8.84;53.58;100797.16;8240210;28;20109;-78
2022/04/23 00:43:49;;;;;;;4.25;3.67;;;11.00;47.00;;;8.66;53.18;100772.81;8231165;28;20050;-77
2022/04/23 00:47:52;;;;;;;4.13;3.72;;;11.20;47.10;;;8.67;53.53;100784.06;8224904;28;20484;-77
2022/04/23 00:51:54;;;;;;;4.00;3.58;;;10.90;46.90;;;8.66;53.07;100800.59;8254768;28;20022;-78
2022/04/23 00:55:57;;;;;;;3.63;3.22;;;11.00;47.00;;;8.51;53.52;100794.34;8215608;28;20129;-78
2022/04/23 01:00:05;;;;;;;4.07;3.50;;;10.80;46.90;;;8.47;53.71;100787.59;8217679;28;20146;-78
2022/04/23 01:04:12;;;;;;;3.78;3.00;;;10.90;47.00;;;7.87;53.53;100707.84;8249047;28;20037;-77
2022/04/23 01:08:18;;;;;;;4.97;3.28;;;10.90;47.10;;;7.90;53.69;100710.28;8240666;28;20133;-77
2022/04/23 01:12:19;;;;;;;3.70;3.33;;;10.80;47.20;;;8.16;53.72;100757.72;8263964;28;20042;-77
2022/04/23 01:16:21;;;;;;;2.83;2.63;;;10.80;47.20;;;8.30;53.69;100783.94;8249991;28;20045;-78
2022/04/23 01:20:24;;;;;;;4.18;3.78;;;10.80;47.20;;;7.88;53.80;100701.72;8248169;28;20141;-78
2022/04/23 01:24:26;;;;;;;3.15;2.85;;;10.80;47.30;;;8.34;53.95;100784.66;8234571;28;20057;-78
2022/04/23 01:28:28;;;;;;;4.18;3.45;;;10.80;47.30;;;8.35;53.68;100788.97;8255531;28;20126;-78
2022/04/23 01:32:29;;;;;;;3.63;3.25;;;10.60;47.20;;;7.78;53.54;100700.47;8252288;28;20044;-77
2022/04/23 01:36:31;;;;;;;4.13;3.72;;;10.60;47.20;;;8.34;53.42;100797.66;8257969;28;20113;-78
2022/04/23 01:40:33;;;;;;;5.43;3.83;;;10.60;47.20;;;8.13;53.49;100778.66;8252860;28;20114;-78
2022/04/23 01:44:34;;;;;;;3.70;3.40;;;10.60;47.20;;;8.26;53.64;100800.59;8259775;28;20458;-78
2022/04/23 01:48:36;;;;;;;4.28;3.88;;;10.50;47.10;;;8.07;53.79;100781.50;8249090;28;20470;-78
2022/04/23 01:52:38;;;;;;;4.90;3.78;;;10.60;47.10;;;8.00;53.67;100773.16;8260237;28;20664;-77
2022/04/23 01:56:39;;;;;;;6.93;3.72;;;10.60;47.10;;;8.01;53.89;100781.78;8247683;28;20122;-78
2022/04/23 02:00:41;;;;;;;4.20;3.55;;;10.40;47.10;;;7.91;53.84;100769.22;8243447;28;20031;-77
2022/04/23 02:04:43;;;;;;;4.00;3.53;;;10.60;47.20;;;8.00;53.61;100787.91;8247863;28;20117;-77
2022/04/23 02:08:44;;;;;;;6.47;3.75;;;10.50;47.10;;;7.77;53.48;100755.94;8236112;28;20559;-77
2022/04/23 02:12:46;;;;;;;4.63;4.13;;;10.40;47.10;;;7.57;54.08;100736.00;8257613;28;20038;-77
2022/04/23 02:16:48;;;;;;;4.13;3.72;;;10.20;47.10;;;7.70;53.92;100768.38;8245525;28;20117;-77
2022/04/23 02:20:50;;;;;;;4.20;3.80;;;10.10;47.10;;;7.60;53.65;100755.81;8224978;28;20141;-77
2022/04/23 02:24:51;;;;;;;5.28;4.40;;;10.40;47.20;;;7.87;53.95;100798.81;8229661;28;20584;-77
2022/04/23 02:28:53;;;;;;;4.75;3.95;;;10.30;47.20;;;7.85;53.56;100803.25;8250382;28;20464;-77
2022/04/23 02:32:55;;;;;;;4.78;3.85;;;10.20;47.20;;;7.79;54.11;100794.88;8262936;28;20484;-77
2022/04/23 02:36:57;;;;;;;5.15;4.03;;;10.10;47.10;;;7.67;53.63;100785.81;8258164;28;20117;-77
2022/04/23 02:40:58;;;;;;;4.65;4.18;;;10.00;47.10;;;7.61;54.02;100778.28;8263791;28;20129;-78
2022/04/23 02:45:03;;;;;;;6.57;3.42;;;10.00;47.20;;;7.70;54.09;100798.72;8251136;28;20118;-77
2022/04/23 02:49:05;;;;;;;6.70;4.47;;;10.10;47.20;;;7.58;54.09;100789.66;8247431;28;20114;-78
2022/04/23 02:53:08;;;;;;;4.95;4.22;;;10.00;47.20;;;7.35;54.12;100764.66;8250019;28;20038;-77
2022/04/23 02:57:11;;;;;;;4.38;3.95;;;10.10;47.20;;;7.58;53.91;100817.41;8263098;28;20567;-77
2022/04/23 03:01:13;;;;;;;4.90;4.40;;;10.10;47.30;;;7.55;53.83;100815.78;8234011;28;20586;-78
2022/04/23 03:05:15;;;;;;;4.80;4.22;;;10.00;47.30;;;7.45;54.05;100804.06;8258681;28;20141;-78
2022/04/23 03:09:17;;;;;;;4.90;4.50;;;10.00;47.30;;;7.34;53.97;100794.09;8214213;28;20138;-78
2022/04/23 03:13:19;;;;;;;5.72;4.22;;;9.90;47.30;;;7.15;54.08;100764.59;8238929;28;20133;-77
2022/04/23 03:17:20;;;;;;;5.20;4.70;;;9.90;47.40;;;7.11;54.18;100760.44;8223274;28;20603;-78
2022/04/23 03:21:22;;;;;;;4.65;4.20;;;9.70;47.30;;;7.23;54.29;100785.91;8223978;28;20126;-77
2022/04/23 03:25:23;;;;;;;6.72;4.95;;;9.90;47.40;;;7.35;54.31;100806.22;8243037;28;20129;-77
2022/04/23 03:29:25;;;;;;;4.80;4.40;;;9.70;47.30;;;7.34;53.89;100809.69;8254298;28;20050;-77
2022/04/23 03:33:27;;;;;;;4.43;4.03;;;9.80;47.40;;;7.24;54.18;100792.81;8256032;28;20034;-77
2022/04/23 03:37:28;;;;;;;5.15;4.65;;;9.80;47.30;;;7.14;53.89;100791.50;8250873;28;20125;-78
2022/04/23 03:41:30;;;;;;;5.20;4.70;;;9.70;47.30;;;7.25;54.04;100815.28;8250889;28;20122;-78
2022/04/23 03:45:33;;;;;;;4.97;4.47;;;9.70;47.40;;;6.86;54.01;100756.25;8248474;28;20782;-77
2022/04/23 03:49:34;;;;;;;5.10;4.28;;;9.70;47.40;;;7.09;54.12;100799.44;8257560;28;20570;-78
2022/04/23 03:53:36;;;;;;;5.80;5.15;;;9.60;47.30;;;7.16;54.10;100819.09;8245364;28;20033;-77
2022/04/23 03:57:50;;;;;;;4.97;4.47;;;9.60;47.40;;;6.98;54.42;100799.88;8246559;28;20141;-77
2022/04/23 04:01:53;;;;;;;5.13;4.40;;;9.60;47.50;;;6.96;54.08;100808.63;8239107;28;20497;-77
2022/04/23 04:05:55;;;;;;;4.78;4.32;;;9.40;47.30;;;7.01;54.02;100828.31;8256532;28;20121;-77
2022/04/23 04:10:01;;;;;;;5.47;4.65;;;9.50;47.70;;;6.93;54.36;100821.72;8235430;28;20129;-77
2022/04/23 04:14:04;;;;;;;5.32;4.75;;;9.40;47.40;;;6.95;54.27;100828.56;8222932;28;20123;-78
2022/04/23 04:18:06;;;;;;;6.05;5.28;;;9.40;47.40;;;6.53;54.29;100777.34;8258976;28;20165;-78
2022/04/23 04:22:08;;;;;;;5.53;5.00;;;9.20;47.60;;;6.70;54.60;100823.44;8250223;28;20117;-77
2022/04/23 04:26:10;;;;;;;7.10;5.28;;;9.30;47.60;;;6.71;54.68;100829.47;8237367;28;20137;-77
2022/04/23 04:30:12;;;;;;;5.88;5.30;;;9.20;47.60;;;6.30;54.59;100754.91;8239706;28;20121;-78
2022/04/23 04:34:23;;;;;;;6.22;5.40;;;9.30;47.70;;;6.70;54.57;100822.59;8226901;28;20049;-78
2022/04/23 04:38:25;;;;;;;5.22;4.72;;;9.30;47.80;;;6.74;54.14;100824.19;8210555;28;21377;-78
2022/04/23 04:42:27;;;;;;;5.00;4.50;;;9.30;47.90;;;6.63;54.40;100822.81;8222536;28;20061;-79
2022/04/23 04:46:28;;;;;;;7.28;5.68;;;9.20;47.90;;;6.63;54.55;100809.00;8241640;28;20137;-78
2022/04/23 04:50:31;;;;;;;5.50;4.78;;;9.30;48.00;;;6.81;54.60;100838.63;8227230;28;20041;-78
2022/04/23 04:54:35;;;;;;;5.78;4.53;;;9.30;48.00;;;6.83;54.90;100839.38;8229025;28;20630;-80
2022/04/23 04:58:37;;;;;;;5.30;4.73;;;9.30;48.10;;;6.53;54.44;100785.16;8227967;28;20030;-78
2022/04/23 05:02:39;;;;;;;5.20;4.68;;;9.00;48.00;;;6.82;54.44;100835.94;8181012;28;20050;-80
2022/04/23 05:06:40;;;;;;;5.60;4.78;;;9.30;48.30;;;6.93;54.83;100845.94;8220770;28;20049;-78
2022/04/23 05:10:42;;;;;;;5.82;5.00;;;9.70;48.50;;;6.98;54.64;100851.78;8237212;28;20043;-78
2022/04/23 05:14:44;;;;;;;5.22;4.72;;;9.70;48.70;;;6.98;54.83;100843.16;8248810;28;20130;-78
2022/04/23 05:18:45;;;;;;;6.20;5.03;;;9.40;48.60;;;6.84;54.75;100815.16;8243340;28;20118;-78
2022/04/23 05:22:47;;;;;;;6.32;5.30;;;9.40;48.70;;;6.93;54.78;100819.97;8250042;28;20110;-78
2022/04/23 05:26:49;;;;;;;5.43;4.93;;;9.20;48.70;;;7.07;55.33;100840.19;8248621;28;20121;-78
2022/04/23 05:30:50;;;;;;;6.25;5.63;;;9.50;48.90;;;6.94;54.69;100811.28;8252791;28;20034;-80
2022/04/23 05:34:52;;;;;;;5.43;4.93;;;9.60;49.20;;;7.11;55.23;100827.97;8246566;28;20425;-78
2022/04/23 05:38:55;;;;;;;6.13;5.57;;;9.30;49.20;;;6.99;54.67;100787.72;8252026;28;20459;-78
2022/04/23 05:42:59;;;;;;;6.82;6.18;;;9.70;49.60;;;7.46;55.29;100850.78;8244430;28;20456;-77
2022/04/23 05:47:00;;;;;;;7.85;6.53;;;9.80;49.70;;;7.63;55.22;100859.66;8254020;28;20034;-77
2022/04/23 05:51:02;;;;;;;5.50;4.97;;;9.90;50.00;;;7.74;55.35;100853.09;8254011;28;20030;-78
2022/04/23 05:55:06;;;;;;;5.43;4.93;;;10.00;50.10;;;7.91;55.27;100846.34;8247003;28;20121;-78
2022/04/23 05:59:08;;;;;;;7.25;5.00;;;10.10;50.40;;;7.98;55.44;100811.38;8244762;28;20542;-79
2022/04/23 06:03:09;;;;;;;5.57;5.00;;;10.20;50.50;;;8.55;55.32;100863.56;8205313;28;20149;-83
2022/04/23 06:07:11;;;;;;;6.47;4.88;;;10.50;50.90;;;8.76;55.38;100831.34;8196517;28;20137;-87
2022/04/23 06:11:12;;;;;;;5.72;5.22;;;10.50;50.80;;;9.18;55.10;100858.06;8227808;28;20034;-80
2022/04/23 06:15:14;;;;;;;6.78;5.45;;;10.90;50.70;;;8.86;55.02;100762.31;8224124;28;20137;-80
2022/04/23 06:19:16;;;;;;;5.90;5.30;;;11.20;50.10;;;9.65;54.99;100845.34;8251785;28;20114;-80
2022/04/23 06:23:17;;;;;;;6.93;4.97;;;11.60;49.80;;;9.92;54.89;100850.09;8225333;28;20121;-80
2022/04/23 06:27:19;;;;;;;5.30;4.43;;;11.70;49.50;;;10.16;54.68;100855.84;8208092;28;20137;-79
2022/04/23 06:31:22;;;;;;;6.32;5.22;;;12.30;49.50;;;10.26;54.34;100838.78;8250489;28;20034;-80
2022/04/23 06:35:24;;;;;;;5.55;4.75;;;12.30;49.10;;;10.59;54.35;100856.25;8261398;28;20551;-83
2022/04/23 06:39:25;;;;;;;5.18;4.68;;;12.30;48.70;;;10.77;54.66;100860.47;8251162;28;20048;-81
2022/04/23 06:43:27;;;;;;;5.38;4.88;;;12.50;48.60;;;10.78;54.52;100830.81;8249415;28;20113;-84
2022/04/23 06:47:28;;;;;;;5.20;4.55;;;12.70;48.30;;;11.00;54.31;100840.09;8241800;28;20133;-81
2022/04/23 06:51:31;;;;;;;4.32;3.67;;;13.10;48.20;;;10.68;53.87;100764.34;8250563;28;20038;-81
2022/04/23 06:55:33;;;;;;;5.10;4.60;;;13.20;47.90;;;11.28;54.20;100849.84;8248164;28;20125;-80
2022/04/23 06:59:35;;;;;;;4.35;3.95;;;13.40;47.90;;;11.49;54.13;100851.25;8246865;28;20118;-81
2022/04/23 07:03:36;;;;;;;4.93;4.43;;;13.40;47.50;;;11.63;53.52;100854.84;8248617;28;20180;-81
2022/04/23 07:07:38;;;;;;;4.60;4.18;;;13.60;47.30;;;11.78;53.78;100853.97;8255201;28;20122;-81
2022/04/23 07:11:40;;;;;;;4.53;3.63;;;13.80;47.20;;;11.92;53.46;100847.97;8258810;28;20035;-81
2022/04/23 07:15:44;;;;;;;4.40;4.00;;;13.90;47.00;;;11.88;52.83;100812.44;8250267;28;20121;-81
2022/04/23 07:19:45;;;;;;;3.35;3.05;;;14.10;47.00;;;11.97;53.50;100805.81;8252856;28;20452;-81
2022/04/23 07:24:05;;;;;;;3.38;3.08;;;14.20;46.90;;;12.19;53.21;100816.69;8249507;28;20467;-81
2022/04/23 07:28:07;;;;;;;3.65;3.35;;;14.30;46.50;;;12.27;52.95;100787.41;8251043;28;20117;-81
2022/04/23 07:32:09;;;;;;;4.03;3.42;;;14.50;46.40;;;12.65;52.92;100819.09;8248936;28;20057;-81
2022/04/23 07:40:51;;;;;;;3.80;3.45;;;14.70;46.20;;;13.24;52.72;100826.72;8204044;28;20039;-81
2022/04/23 07:44:53;;;;;;;3.85;3.53;;;15.00;46.20;;;13.30;52.58;100800.13;8214166;28;20048;-82
2022/04/23 07:48:57;;;;;;;4.20;3.75;;;15.30;46.10;;;13.60;52.04;100817.41;8233319;28;20041;-81
2022/04/23 07:52:58;;;;;;;4.10;3.70;;;15.50;45.90;;;13.86;52.31;100827.00;8236815;28;20402;-82
2022/04/23 07:57:00;;;;;;;4.07;3.72;;;15.60;45.90;;;13.84;52.10;100772.94;8229195;28;20129;-82
2022/04/23 08:01:02;;;;;;;4.55;4.13;;;15.80;45.50;;;14.35;51.70;100831.53;8249102;28;20117;-81
2022/04/23 08:05:05;;;;;;;4.30;3.90;;;16.00;45.10;;;14.51;51.67;100825.22;8241854;28;20452;-82
2022/04/23 08:09:06;;;;;;;4.65;4.25;;;16.40;45.30;;;14.63;51.44;100818.28;8239932;28;20127;-82
2022/04/23 08:13:09;;;;;;;4.60;4.18;;;16.50;45.00;;;14.82;51.62;100826.53;8240519;28;20133;-83
2022/04/23 08:17:10;;;;;;;4.22;3.78;;;16.50;45.00;;;14.93;50.79;100802.97;8245745;28;20484;-84
2022/04/23 08:21:12;;;;;;;5.47;4.65;;;16.80;44.60;;;15.14;50.81;100805.78;8222766;28;20494;-84
2022/04/23 08:25:14;;;;;;;4.40;4.00;;;16.80;44.20;;;15.30;50.78;100791.53;8256577;28;20568;-84
2022/04/23 08:37:56;;;;;;;4.53;4.13;;;17.60;43.70;;;15.99;50.44;100799.53;8245891;28;20118;-84
2022/04/23 08:41:58;;;;;;;4.53;4.10;;;17.70;43.50;;;15.97;49.98;100770.66;8254372;28;20462;-82
2022/04/23 08:46:03;;;;;;;5.32;4.38;;;17.90;43.50;;;16.07;50.17;100752.38;8245214;28;20113;-82
2022/04/23 08:50:08;;;;;;;3.80;3.50;;;17.90;43.20;;;16.57;50.12;100790.53;8258951;28;20117;-82
2022/04/23 08:54:12;;;;;;;4.03;3.60;;;18.30;43.50;;;16.75;49.60;100787.41;8238013;28;20546;-83
2022/04/23 08:58:15;;;;;;;5.10;4.60;;;18.60;43.20;;;16.79;49.14;100771.22;8247838;28;20141;-82
2022/04/23 09:02:16;;;;;;;4.50;4.10;;;18.60;41.90;;;16.87;49.07;100775.88;8262430;28;20141;-82
2022/04/23 09:06:18;;;;;;;4.90;3.65;;;18.80;42.00;;;16.75;48.99;100742.56;8240778;28;20126;-82
2022/04/23 09:10:20;;;;;;;3.78;3.47;;;18.90;42.30;;;16.97;48.51;100754.88;8255251;28;20121;-81
2022/04/23 09:14:27;;;;;;;4.07;3.67;;;18.90;41.50;;;17.13;48.44;100765.84;8209161;28;20043;-82
2022/04/23 09:27:21;;;;;;;3.78;3.47;;;19.20;41.10;;;17.50;48.02;100748.75;8250077;28;20062;-81
2022/04/23 09:31:24;;;;;;;3.08;2.88;;;19.40;41.40;;;17.60;47.74;100739.09;8242356;28;20125;-81
2022/04/23 09:35:26;;;;;;;3.60;3.25;;;19.40;41.20;;;17.87;47.66;100760.53;8242346;28;20651;-80
2022/04/23 09:39:36;;;;;;;3.28;2.97;;;19.50;40.70;;;17.81;46.96;100724.09;8244701;28;20038;-81
2022/04/23 09:43:38;;;;;;;3.80;3.50;;;19.80;40.10;;;18.06;47.01;100733.34;8223749;28;20456;-81
2022/04/23 09:47:42;;;;;;;4.13;3.72;;;19.80;40.40;;;18.26;46.64;100744.03;8219494;28;20149;-81
2022/04/23 09:52:11;;;;;;;3.60;3.30;;;19.90;40.20;;;18.37;46.54;100737.81;8258154;28;20042;-81
2022/04/23 09:56:13;;;;;;;3.70;3.40;;;20.20;39.80;;;18.31;46.47;100718.03;8243631;28;20141;-81
2022/04/23 10:00:15;;;;;;;3.10;2.90;;;20.30;39.70;;;18.33;46.32;100695.78;8258849;28;20169;-81
2022/04/23 10:04:27;;;;;;;3.58;3.28;;;20.40;39.80;;;18.53;45.44;100711.69;8252758;28;20113;-80
2022/04/23 10:08:32;;;;;;;3.70;3.40;;;20.50;39.30;;;18.55;45.77;100699.13;8255666;28;20619;-81
2022/04/23 10:12:38;;;;;;;3.70;3.40;;;20.60;39.50;;;18.68;45.84;100701.50;8248764;28;20407;-84
2022/04/23 10:16:40;;;;;;;4.63;3.53;;;20.50;38.60;;;18.71;45.67;100698.59;8206037;28;20125;-84
2022/04/23 10:20:53;;;;;;;3.65;3.35;;;20.70;39.00;;;18.89;45.45;100718.13;8256731;28;20117;-84
2022/04/23 10:25:33;;;;;;;3.88;3.58;;;20.80;38.90;;;18.89;45.04;100698.78;8240969;28;20594;-84
2022/04/23 10:29:35;;;;;;;3.67;3.38;;;20.90;38.40;;;18.65;44.87;100659.47;8254914;28;20140;-85
2022/04/23 10:33:46;;;;;;;4.00;3.70;;;20.90;38.60;;;18.94;44.39;100702.69;8250673;28;20026;-94
2022/04/23 10:37:52;;;;;;;4.72;3.67;;;20.90;38.30;;;18.99;44.38;100705.75;8213565;28;20133;-84
2022/04/23 10:41:54;;;;;;;3.58;3.28;;;20.90;37.90;;;19.08;44.29;100712.00;8230462;28;20118;-85
2022/04/23 10:45:56;;;;;;;3.38;3.08;;;20.80;37.90;;;19.01;44.60;100684.44;8232842;28;20113;-84
2022/04/23 10:50:28;;;;;;;3.30;3.00;;;21.00;38.20;;;19.25;43.92;100697.22;8217926;28;20181;-85
2022/04/23 10:54:39;;;;;;;3.40;3.10;;;21.00;38.10;;;19.35;43.67;100703.34;8226172;28;20472;-85
2022/04/23 10:58:41;;;;;;;2.95;2.75;;;21.10;37.60;;;19.25;43.96;100670.72;8242613;28;20113;-84
2022/04/23 11:02:56;;;;;;;2.88;2.67;;;21.20;37.40;;;19.26;42.98;100653.06;8257952;28;20598;-84
2022/04/23 11:16:16;;;;;;;3.00;2.70;;;21.30;36.80;;;19.67;43.02;100679.16;8255076;28;20049;-84
2022/04/23 11:20:36;;;;;;;2.90;2.70;;;21.40;36.90;;;19.44;42.44;100660.13;8250766;28;20467;-85
2022/04/23 11:24:39;;;;;;;2.60;2.40;;;21.50;36.40;;;19.31;42.58;100643.72;8248267;28;20117;-84
2022/04/23 11:28:41;;;;;;;5.15;2.45;;;21.60;36.60;;;19.48;42.85;100659.81;8255748;28;20113;-86
2022/04/23 11:32:43;;;;;;;2.40;2.20;;;21.30;36.70;;;19.57;42.52;100662.44;8204272;28;20582;-84
2022/04/23 11:36:45;;;;;;;3.03;2.78;;;21.70;36.60;;;19.64;42.49;100650.28;8257252;28;20121;-85
2022/04/23 11:40:47;;;;;;;2.88;2.67;;;21.40;36.60;;;19.79;42.14;100649.81;8231173;28;20126;-84
2022/04/23 11:44:56;;;;;;;3.90;2.75;;;21.60;36.60;;;19.78;41.46;100645.53;8255196;28;20456;-84
2022/04/23 11:48:58;;;;;;;3.47;2.80;;;21.60;36.10;;;19.70;41.81;100619.75;8267648;28;20133;-85
2022/04/23 11:53:03;;;;;;;3.08;2.78;;;21.70;36.10;;;19.79;41.20;100640.06;8256882;28;20364;-84
2022/04/23 11:57:17;;;;;;;2.40;2.20;;;21.60;35.60;;;19.68;40.99;100611.09;8239158;28;20114;-85
2022/04/23 12:01:22;;;;;;;3.00;2.80;;;21.70;35.70;;;19.81;41.06;100622.19;8240295;28;20117;-84
2022/04/23 12:05:28;;;;;;;3.67;2.78;;;21.90;35.30;;;19.70;40.22;100598.56;8243386;28;20130;-84
2022/04/23 12:09:30;;;;;;;2.20;2.10;;;21.70;35.20;;;19.91;40.21;100622.16;8239243;28;20547;-85
2022/04/23 12:13:33;;;;;;;3.10;2.80;;;21.70;34.70;;;19.82;40.18;100608.00;8253422;28;20129;-84
2022/04/23 12:17:53;;;;;;;3.17;2.90;;;21.70;34.50;;;19.81;39.88;100597.53;8239018;28;20481;-83
2022/04/23 12:21:57;;;;;;;2.88;2.67;;;21.70;34.60;;;19.87;39.95;100616.34;8225964;28;20046;-83
2022/04/23 12:26:08;;;;;;;5.07;2.55;;;21.70;34.60;;;19.80;39.60;100625.03;8255311;28;20047;-83
2022/04/23 12:43:32;;;;;;;3.22;2.70;;;21.70;34.60;;;19.83;39.73;100599.03;8244423;28;20559;-83
2022/04/23 12:47:34;;;;;;;2.45;2.25;;;21.70;34.40;;;19.69;39.94;100554.50;8248046;28;20042;-82
2022/04/23 12:51:53;;;;;;;2.75;2.47;;;21.70;34.70;;;19.92;39.62;100567.34;8243915;28;20125;-83
2022/04/23 12:55:55;;;;;;;3.20;2.40;;;21.70;34.60;;;20.01;39.72;100569.06;8221699;28;20049;-82
2022/04/23 12:59:57;;;;;;;2.40;2.20;;;21.60;34.30;;;19.93;39.97;100553.09;8242901;28;20117;-82
2022/04/23 13:04:01;;;;;;;2.72;2.53;;;21.70;34.40;;;19.88;39.40;100549.09;8253485;28;20567;-82
2022/04/23 13:12:24;;;;;;;2.80;2.55;;;21.90;34.10;;;20.04;39.20;100548.41;8257489;28;20138;-81
2022/04/23 13:16:31;;;;;;;2.80;2.60;;;21.80;33.90;;;20.12;38.94;100552.97;8238791;28;20050;-82
2022/04/23 13:20:33;;;;;;;2.85;2.65;;;22.00;34.10;;;19.66;39.15;100454.97;8247099;28;20038;-82
2022/04/23 13:24:35;;;;;;;2.88;2.55;;;21.90;34.40;;;20.37;39.06;100545.25;8250923;28;20105;-82
2022/04/23 13:28:36;;;;;;;2.75;2.55;;;21.90;34.30;;;20.52;39.00;100554.31;8252243;28;20556;-80
2022/04/23 13:32:39;;;;;;;2.80;2.60;;;22.20;34.60;;;20.60;38.85;100551.75;8227313;28;20559;-83
2022/04/23 13:36:41;;;;;;;3.15;2.90;;;22.10;34.60;;;20.71;38.73;100530.28;8249356;28;20043;-83
2022/04/23 13:40:48;;;;;;;3.55;3.00;;;22.40;33.90;;;20.70;37.96;100543.69;8250921;28;20571;-83
2022/04/23 13:44:49;;;;;;;3.08;2.58;;;22.40;33.20;;;20.16;38.56;100482.75;8265104;28;20045;-82
2022/04/23 13:48:51;;;;;;;5.80;2.92;;;22.30;33.70;;;20.36;38.61;100530.28;8243309;28;20133;-84
2022/04/23 13:52:53;;;;;;;2.95;2.75;;;22.40;33.80;;;20.13;38.50;100525.47;8262600;28;20038;-82
2022/04/23 13:56:55;;;;;;;3.28;2.97;;;22.20;33.70;;;20.01;38.35;100485.09;8247748;28;20041;-82
2022/04/23 14:00:56;;;;;;;2.85;2.65;;;22.10;33.70;;;20.21;38.46;100511.44;8241593;28;20620;-82
2022/04/23 14:13:38;;;;;;;2.70;2.50;;;22.00;33.70;;;20.22;38.32;100516.59;8239685;28;20509;-82
2022/04/23 14:17:40;;;;;;;2.75;2.55;;;22.00;33.70;;;20.23;38.21;100498.88;8245762;28;20121;-83
2022/04/23 14:21:42;;;;;;;2.65;2.45;;;22.00;33.70;;;20.36;38.18;100503.78;8258352;28;20125;-82
2022/04/23 14:25:44;;;;;;;2.60;2.40;;;22.00;33.90;;;20.47;37.82;100495.59;8258959;28;20128;-83
2022/04/23 14:29:48;;;;;;;2.78;2.58;;;22.10;33.70;;;20.42;37.54;100472.19;8241346;28;20129;-82
2022/04/23 14:33:50;;;;;;;4.25;3.85;;;22.00;33.70;;;20.47;37.59;100480.50;8247867;28;20403;-82
2022/04/23 14:37:52;;;;;;;3.38;3.08;;;22.10;33.40;;;20.43;37.40;100471.19;8246918;28;20118;-82
2022/04/23 14:41:54;;;;;;;2.58;2.38;;;22.00;33.20;;;20.41;37.43;100465.19;8224158;28;20134;-82
2022/04/23 14:45:56;;;;;;;2.80;2.60;;;22.20;33.50;;;20.46;37.23;100472.69;8238307;28;20038;-82
2022/04/23 14:49:58;;;;;;;3.13;2.78;;;22.20;33.20;;;20.43;37.13;100467.69;8237223;28;20035;-82
2022/04/23 14:54:00;;;;;;;2.78;2.58;;;22.20;32.80;;;20.42;37.15;100468.69;8230151;28;20031;-82
2022/04/23 14:58:01;;;;;;;2.90;2.70;;;22.20;33.00;;;20.31;37.14;100449.38;8234593;28;20045;-82
2022/04/23 15:02:03;;;;;;;2.65;2.45;;;22.00;33.10;;;20.41;37.32;100454.56;8235638;28;20109;-82
2022/04/23 15:06:05;;;;;;;3.35;3.05;;;22.20;33.30;;;20.44;37.01;100458.75;8235913;28;20117;-84
2022/04/23 15:10:07;;;;;;;2.80;2.60;;;22.20;33.30;;;20.42;36.66;100458.91;8213431;28;20043;-82
2022/04/23 15:14:09;;;;;;;3.22;3.00;;;22.20;33.30;;;20.12;37.13;100415.13;8217061;28;20053;-82
2022/04/23 15:18:11;;;;;;;4.63;3.08;;;22.20;33.20;;;20.16;36.85;100455.41;8240115;28;20042;-82
2022/04/23 15:22:12;;;;;;;2.80;2.60;;;22.30;33.00;;;20.08;37.14;100446.38;8239471;28;20041;-82
2022/04/23 15:26:14;;;;;;;2.65;2.45;;;21.90;33.00;;;20.00;36.77;100429.59;8246466;28;20522;-82
2022/04/23 15:30:15;;;;;;;5.10;2.75;;;22.00;33.00;;;20.14;36.92;100466.13;8254784;28;20727;-81
2022/04/23 15:34:17;;;;;;;3.45;3.10;;;21.90;32.70;;;19.95;36.79;100426.56;8251169;28;20044;-81
2022/04/23 15:38:20;;;;;;;2.85;2.63;;;22.00;33.10;;;20.11;36.86;100448.72;8229337;28;20045;-82
2022/04/23 15:42:22;;;;;;;4.00;2.80;;;21.90;33.00;;;20.10;36.89;100431.16;8227875;28;20531;-82
2022/04/23 15:46:27;;;;;;;2.70;2.50;;;21.90;33.00;;;20.14;36.46;100436.16;8210437;28;20045;-82
2022/04/23 15:50:28;;;;;;;4.50;2.67;;;21.90;32.70;;;20.07;36.63;100425.34;8211662;28;20035;-83
2022/04/23 15:54:33;;;;;;;2.45;2.33;;;21.90;32.90;;;20.03;36.34;100419.50;8201516;28;20050;-84
2022/04/23 15:58:35;;;;;;;4.27;3.73;;;21.90;32.60;;;19.98;36.47;100436.84;8206808;28;20042;-83
2022/04/23 16:02:40;;;;;;;2.85;2.65;;;21.90;32.70;;;19.86;36.48;100441.56;8186961;28;20050;-83
2022/04/23 16:06:41;;;;;;;2.83;2.63;;;21.80;32.80;;;19.75;36.70;100444.44;8235798;28;20041;-82
2022/04/23 16:10:43;;;;;;;4.45;2.78;;;21.60;32.90;;;19.39;36.49;100394.91;8222473;28;20045;-83
2022/04/23 16:14:44;;;;;;;2.53;2.38;;;21.40;32.80;;;19.66;36.62;100443.53;8215674;28;20571;-83
2022/04/23 16:18:48;;;;;;;3.30;2.42;;;21.50;32.90;;;19.04;36.67;100342.72;8187813;28;20050;-83
2022/04/23 16:22:50;;;;;;;3.03;2.80;;;21.30;32.90;;;19.62;36.69;100426.22;8218523;28;20043;-84
2022/04/23 16:26:51;;;;;;;3.45;2.70;;;21.50;33.20;;;19.64;36.63;100432.22;8236035;28;20061;-82
2022/04/23 16:30:53;;;;;;;4.03;2.75;;;21.40;33.20;;;19.52;36.66;100420.16;8222434;28;20484;-83
2022/04/23 16:34:54;;;;;;;3.30;3.00;;;21.40;33.30;;;19.42;36.85;100431.66;8188484;28;20047;-82
2022/04/23 16:47:36;;;;;;;2.63;2.30;;;21.20;33.00;;;18.77;36.54;100368.22;8220308;28;20047;-84
2022/04/23 16:51:37;;;;;;;2.67;2.47;;;21.10;33.20;;;19.10;36.63;100428.66;8215444;28;20240;-82
2022/04/23 16:55:42;;;;;;;5.20;2.55;;;20.90;32.80;;;19.08;36.53;100422.66;8220969;28;20945;-83
2022/04/23 16:59:43;;;;;;;2.85;2.60;;;21.30;33.20;;;19.00;36.50;100431.34;8228060;28;20065;-83
2022/04/23 17:03:45;;;;;;;2.50;2.33;;;20.80;33.00;;;19.04;36.35;100429.22;8203623;28;20407;-85
2022/04/23 17:07:46;;;;;;;3.17;2.90;;;20.70;33.40;;;18.89;36.52;100416.47;8224884;28;20045;-83
2022/04/23 17:11:48;;;;;;;3.42;3.17;;;20.90;33.20;;;18.79;36.39;100408.59;8228606;28;20842;-83
2022/04/23 17:15:50;;;;;;;2.80;2.60;;;20.80;33.20;;;18.78;36.58;100411.38;8225402;28;20035;-83
2022/04/23 17:19:51;;;;;;;2.90;2.65;;;20.80;33.30;;;18.66;36.57;100392.19;8227161;28;20042;-83
2022/04/23 17:23:53;;;;;;;3.25;2.42;;;20.70;33.30;;;18.74;36.61;100407.31;8225367;28;20039;-83
2022/04/23 17:27:55;;;;;;;2.67;2.35;;;20.60;33.30;;;18.74;36.60;100417.88;8222177;28;20048;-83
2022/04/23 17:31:56;;;;;;;2.20;2.10;;;20.70;33.50;;;18.81;36.65;100429.59;8225472;28;20403;-83
2022/04/23 17:35:58;;;;;;;2.50;2.30;;;20.70;33.60;;;18.68;36.74;100427.25;8237134;28;20073;-83
2022/04/23 17:40:00;;;;;;;2.75;2.55;;;20.60;33.50;;;18.52;36.82;100412.00;8222165;28;20811;-84
2022/04/23 17:44:06;;;;;;;2.53;2.33;;;20.50;33.50;;;18.61;36.77;100431.47;8223485;28;20508;-83
2022/04/23 17:48:07;;;;;;;4.43;2.92;;;20.50;33.50;;;18.49;36.86;100430.78;8235136;28;20668;-82
2022/04/23 17:52:09;;;;;;;4.75;3.17;;;20.50;33.60;;;18.42;36.99;100431.53;8222957;28;20526;-82
2022/04/23 17:56:11;;;;;;;2.92;2.70;;;20.40;33.70;;;18.20;37.28;100409.72;8242216;28;20042;-80
2022/04/23 18:08:55;;;;;;;3.60;3.30;;;20.20;33.90;;;18.20;37.19;100432.66;8227673;28;20046;-80
2022/04/23 18:12:56;;;;;;;3.45;3.15;;;20.10;33.90;;;18.21;37.17;100444.91;8239727;28;20464;-80